sensor_id;sensor_type;location;lat;lon;timestamp;P1;durP1;ratioP1;P2;durP2;ratioP2
26303;SDS011;57113;48.680;8.890;2023-04-28T00:00:14;3.40;;;2.40;;
26303;SDS011;57113;48.680;8.890;2023-04-28T00:02:40;4.10;;;2.60;;
26303;SDS011;57113;48.680;8.890;2023-04-28T00:05:05;2.63;;;2.13;;
26303;SDS011;57113;48.680;8.890;2023-04-28T00:07:31;4.85;;;2.35;;
26303;SDS011;57113;48.680;8.890;2023-04-28T00:09:57;4.15;;;2.40;;
26303;SDS011;57113;48.680;8.890;2023-04-28T00:12:22;4.72;;;2.20;;
26303;SDS011;57113;48.680;8.890;2023-04-28T00:14:48;2.95;;;2.20;;
26303;SDS011;57113;48.680;8.890;2023-04-28T00:17:14;4.70;;;2.20;;
26303;SDS011;57113;48.680;8.890;2023-04-28T00:19:39;3.10;;;2.13;;
26303;SDS011;57113;48.680;8.890;2023-04-28T00:22:06;4.45;;;2.50;;
26303;SDS011;57113;48.680;8.890;2023-04-28T00:24:31;3.88;;;2.17;;
26303;SDS011;57113;48.680;8.890;2023-04-28T00:26:58;4.68;;;2.30;;
26303;SDS011;57113;48.680;8.890;2023-04-28T00:29:23;5.60;;;2.40;;
26303;SDS011;57113;48.680;8.890;2023-04-28T00:31:49;7.68;;;2.45;;
26303;SDS011;57113;48.680;8.890;2023-04-28T00:34:15;4.57;;;2.40;;
26303;SDS011;57113;48.680;8.890;2023-04-28T00:36:40;7.13;;;2.40;;
26303;SDS011;57113;48.680;8.890;2023-04-28T00:39:06;6.53;;;2.72;;
26303;SDS011;57113;48.680;8.890;2023-04-28T00:41:33;3.35;;;2.28;;
26303;SDS011;57113;48.680;8.890;2023-04-28T00:43:59;4.45;;;2.35;;
26303;SDS011;57113;48.680;8.890;2023-04-28T00:46:31;5.65;;;2.45;;
26303;SDS011;57113;48.680;8.890;2023-04-28T00:48:58;5.05;;;2.60;;
26303;SDS011;57113;48.680;8.890;2023-04-28T00:51:24;6.10;;;2.20;;
26303;SDS011;57113;48.680;8.890;2023-04-28T00:53:51;5.45;;;2.25;;
26303;SDS011;57113;48.680;8.890;2023-04-28T00:56:17;3.65;;;2.20;;
26303;SDS011;57113;48.680;8.890;2023-04-28T00:58:43;4.13;;;2.30;;
26303;SDS011;57113;48.680;8.890;2023-04-28T01:01:09;3.83;;;2.47;;
26303;SDS011;57113;48.680;8.890;2023-04-28T01:03:38;4.28;;;2.45;;
26303;SDS011;57113;48.680;8.890;2023-04-28T01:06:04;4.60;;;2.28;;
26303;SDS011;57113;48.680;8.890;2023-04-28T01:08:31;6.55;;;2.20;;
26303;SDS011;57113;48.680;8.890;2023-04-28T01:10:57;4.43;;;2.50;;
26303;SDS011;57113;48.680;8.890;2023-04-28T01:13:23;4.68;;;2.38;;
26303;SDS011;57113;48.680;8.890;2023-04-28T01:15:49;3.90;;;2.15;;
26303;SDS011;57113;48.680;8.890;2023-04-28T01:18:15;3.67;;;2.00;;
26303;SDS011;57113;48.680;8.890;2023-04-28T01:20:41;5.63;;;2.60;;
26303;SDS011;57113;48.680;8.890;2023-04-28T01:23:14;3.75;;;2.30;;
26303;SDS011;57113;48.680;8.890;2023-04-28T01:25:41;5.93;;;2.30;;
26303;SDS011;57113;48.680;8.890;2023-04-28T01:28:07;5.50;;;2.10;;
26303;SDS011;57113;48.680;8.890;2023-04-28T01:30:34;4.57;;;2.22;;
26303;SDS011;57113;48.680;8.890;2023-04-28T01:33:00;4.07;;;2.35;;
26303;SDS011;57113;48.680;8.890;2023-04-28T01:35:26;3.30;;;2.13;;
26303;SDS011;57113;48.680;8.890;2023-04-28T01:37:52;5.07;;;2.28;;
26303;SDS011;57113;48.680;8.890;2023-04-28T01:40:18;4.38;;;2.20;;
26303;SDS011;57113;48.680;8.890;2023-04-28T01:42:43;6.60;;;2.35;;
26303;SDS011;57113;48.680;8.890;2023-04-28T01:45:09;4.65;;;2.28;;
26303;SDS011;57113;48.680;8.890;2023-04-28T01:47:35;3.25;;;2.10;;
26303;SDS011;57113;48.680;8.890;2023-04-28T01:50:01;4.45;;;2.20;;
26303;SDS011;57113;48.680;8.890;2023-04-28T01:52:27;3.83;;;2.58;;
26303;SDS011;57113;48.680;8.890;2023-04-28T01:54:53;6.20;;;2.67;;
26303;SDS011;57113;48.680;8.890;2023-04-28T01:57:43;6.95;;;2.65;;
26303;SDS011;57113;48.680;8.890;2023-04-28T02:00:08;9.02;;;2.92;;
26303;SDS011;57113;48.680;8.890;2023-04-28T02:02:34;4.15;;;2.33;;
26303;SDS011;57113;48.680;8.890;2023-04-28T02:05:00;5.55;;;2.30;;
26303;SDS011;57113;48.680;8.890;2023-04-28T02:07:26;3.78;;;2.30;;
26303;SDS011;57113;48.680;8.890;2023-04-28T02:09:52;8.43;;;2.47;;
26303;SDS011;57113;48.680;8.890;2023-04-28T02:12:17;5.35;;;2.72;;
26303;SDS011;57113;48.680;8.890;2023-04-28T02:14:43;4.88;;;2.42;;
26303;SDS011;57113;48.680;8.890;2023-04-28T02:17:08;3.55;;;2.33;;
26303;SDS011;57113;48.680;8.890;2023-04-28T02:19:34;8.00;;;2.20;;
26303;SDS011;57113;48.680;8.890;2023-04-28T02:22:00;4.75;;;2.20;;
26303;SDS011;57113;48.680;8.890;2023-04-28T02:24:25;5.25;;;2.40;;
26303;SDS011;57113;48.680;8.890;2023-04-28T02:26:51;5.93;;;2.50;;
26303;SDS011;57113;48.680;8.890;2023-04-28T02:29:17;6.70;;;2.70;;
26303;SDS011;57113;48.680;8.890;2023-04-28T02:31:43;6.32;;;2.42;;
26303;SDS011;57113;48.680;8.890;2023-04-28T02:34:09;5.25;;;2.35;;
26303;SDS011;57113;48.680;8.890;2023-04-28T02:36:35;3.88;;;2.20;;
26303;SDS011;57113;48.680;8.890;2023-04-28T02:39:00;4.97;;;2.42;;
26303;SDS011;57113;48.680;8.890;2023-04-28T02:41:26;4.88;;;2.58;;
26303;SDS011;57113;48.680;8.890;2023-04-28T02:43:51;5.50;;;3.10;;
26303;SDS011;57113;48.680;8.890;2023-04-28T02:46:17;6.35;;;2.47;;
26303;SDS011;57113;48.680;8.890;2023-04-28T02:48:43;3.50;;;2.25;;
26303;SDS011;57113;48.680;8.890;2023-04-28T02:51:08;3.72;;;1.95;;
26303;SDS011;57113;48.680;8.890;2023-04-28T02:53:34;3.60;;;2.20;;
26303;SDS011;57113;48.680;8.890;2023-04-28T02:56:00;3.53;;;2.25;;
26303;SDS011;57113;48.680;8.890;2023-04-28T02:58:28;4.15;;;2.17;;
26303;SDS011;57113;48.680;8.890;2023-04-28T03:00:53;3.97;;;2.58;;
26303;SDS011;57113;48.680;8.890;2023-04-28T03:03:19;5.38;;;2.60;;
26303;SDS011;57113;48.680;8.890;2023-04-28T03:05:45;3.80;;;2.13;;
26303;SDS011;57113;48.680;8.890;2023-04-28T03:08:10;7.75;;;2.70;;
26303;SDS011;57113;48.680;8.890;2023-04-28T03:10:36;6.22;;;2.80;;
26303;SDS011;57113;48.680;8.890;2023-04-28T03:13:01;3.20;;;2.00;;
26303;SDS011;57113;48.680;8.890;2023-04-28T03:15:27;4.03;;;2.17;;
26303;SDS011;57113;48.680;8.890;2023-04-28T03:17:53;6.95;;;2.33;;
26303;SDS011;57113;48.680;8.890;2023-04-28T03:20:18;4.22;;;2.35;;
26303;SDS011;57113;48.680;8.890;2023-04-28T03:22:44;3.95;;;2.70;;
26303;SDS011;57113;48.680;8.890;2023-04-28T03:25:09;5.35;;;2.67;;
26303;SDS011;57113;48.680;8.890;2023-04-28T03:27:35;3.85;;;2.72;;
26303;SDS011;57113;48.680;8.890;2023-04-28T03:30:01;2.83;;;2.08;;
26303;SDS011;57113;48.680;8.890;2023-04-28T03:32:26;4.05;;;2.40;;
26303;SDS011;57113;48.680;8.890;2023-04-28T03:34:52;3.55;;;2.10;;
26303;SDS011;57113;48.680;8.890;2023-04-28T03:37:18;3.60;;;2.20;;
26303;SDS011;57113;48.680;8.890;2023-04-28T03:39:43;4.70;;;2.08;;
26303;SDS011;57113;48.680;8.890;2023-04-28T03:42:09;5.05;;;2.22;;
26303;SDS011;57113;48.680;8.890;2023-04-28T03:44:35;3.95;;;2.10;;
26303;SDS011;57113;48.680;8.890;2023-04-28T03:47:00;2.88;;;1.85;;
26303;SDS011;57113;48.680;8.890;2023-04-28T03:49:26;3.63;;;2.28;;
26303;SDS011;57113;48.680;8.890;2023-04-28T03:51:52;6.10;;;2.15;;
26303;SDS011;57113;48.680;8.890;2023-04-28T03:54:17;3.28;;;2.00;;
26303;SDS011;57113;48.680;8.890;2023-04-28T03:56:43;2.95;;;2.08;;
26303;SDS011;57113;48.680;8.890;2023-04-28T03:59:09;2.80;;;1.98;;
26303;SDS011;57113;48.680;8.890;2023-04-28T04:01:36;3.55;;;2.10;;
26303;SDS011;57113;48.680;8.890;2023-04-28T04:04:02;5.68;;;1.83;;
26303;SDS011;57113;48.680;8.890;2023-04-28T04:06:28;4.20;;;2.22;;
26303;SDS011;57113;48.680;8.890;2023-04-28T04:08:54;4.63;;;2.30;;
26303;SDS011;57113;48.680;8.890;2023-04-28T04:11:19;4.30;;;2.28;;
26303;SDS011;57113;48.680;8.890;2023-04-28T04:13:45;2.92;;;2.10;;
26303;SDS011;57113;48.680;8.890;2023-04-28T04:16:11;4.13;;;2.20;;
26303;SDS011;57113;48.680;8.890;2023-04-28T04:18:39;5.25;;;2.17;;
26303;SDS011;57113;48.680;8.890;2023-04-28T04:21:05;2.58;;;2.00;;
26303;SDS011;57113;48.680;8.890;2023-04-28T04:23:30;2.63;;;1.90;;
26303;SDS011;57113;48.680;8.890;2023-04-28T04:25:56;3.03;;;2.00;;
26303;SDS011;57113;48.680;8.890;2023-04-28T04:28:22;5.57;;;2.25;;
26303;SDS011;57113;48.680;8.890;2023-04-28T04:30:47;4.93;;;2.35;;
26303;SDS011;57113;48.680;8.890;2023-04-28T04:33:13;3.92;;;2.33;;
26303;SDS011;57113;48.680;8.890;2023-04-28T04:35:38;3.65;;;2.10;;
26303;SDS011;57113;48.680;8.890;2023-04-28T04:38:04;2.97;;;2.15;;
26303;SDS011;57113;48.680;8.890;2023-04-28T04:40:31;3.22;;;2.28;;
26303;SDS011;57113;48.680;8.890;2023-04-28T04:42:57;3.42;;;1.90;;
26303;SDS011;57113;48.680;8.890;2023-04-28T04:45:22;2.85;;;2.00;;
26303;SDS011;57113;48.680;8.890;2023-04-28T04:47:48;2.45;;;1.95;;
26303;SDS011;57113;48.680;8.890;2023-04-28T04:50:13;2.22;;;1.88;;
26303;SDS011;57113;48.680;8.890;2023-04-28T04:52:39;3.15;;;2.38;;
26303;SDS011;57113;48.680;8.890;2023-04-28T04:55:05;3.58;;;1.95;;
26303;SDS011;57113;48.680;8.890;2023-04-28T04:57:31;3.88;;;2.40;;
26303;SDS011;57113;48.680;8.890;2023-04-28T04:59:57;2.67;;;1.70;;
26303;SDS011;57113;48.680;8.890;2023-04-28T05:02:22;4.25;;;2.03;;
26303;SDS011;57113;48.680;8.890;2023-04-28T05:04:48;2.38;;;1.70;;
26303;SDS011;57113;48.680;8.890;2023-04-28T05:07:13;3.00;;;2.00;;
26303;SDS011;57113;48.680;8.890;2023-04-28T05:09:39;2.90;;;2.28;;
26303;SDS011;57113;48.680;8.890;2023-04-28T05:12:05;3.65;;;2.10;;
26303;SDS011;57113;48.680;8.890;2023-04-28T05:14:30;2.92;;;1.80;;
26303;SDS011;57113;48.680;8.890;2023-04-28T05:16:56;3.20;;;2.15;;
26303;SDS011;57113;48.680;8.890;2023-04-28T05:19:22;3.60;;;2.28;;
26303;SDS011;57113;48.680;8.890;2023-04-28T05:21:48;3.30;;;1.90;;
26303;SDS011;57113;48.680;8.890;2023-04-28T05:24:14;2.78;;;1.70;;
26303;SDS011;57113;48.680;8.890;2023-04-28T05:26:41;2.88;;;1.70;;
26303;SDS011;57113;48.680;8.890;2023-04-28T05:29:07;3.78;;;2.03;;
26303;SDS011;57113;48.680;8.890;2023-04-28T05:31:32;3.00;;;2.05;;
26303;SDS011;57113;48.680;8.890;2023-04-28T05:33:58;4.47;;;2.20;;
26303;SDS011;57113;48.680;8.890;2023-04-28T05:36:23;7.15;;;1.95;;
26303;SDS011;57113;48.680;8.890;2023-04-28T05:38:50;5.43;;;2.15;;
26303;SDS011;57113;48.680;8.890;2023-04-28T05:41:16;2.97;;;2.08;;
26303;SDS011;57113;48.680;8.890;2023-04-28T05:43:41;2.30;;;1.77;;
26303;SDS011;57113;48.680;8.890;2023-04-28T05:46:07;2.83;;;1.75;;
26303;SDS011;57113;48.680;8.890;2023-04-28T05:48:33;3.83;;;2.00;;
26303;SDS011;57113;48.680;8.890;2023-04-28T05:50:58;3.55;;;2.42;;
26303;SDS011;57113;48.680;8.890;2023-04-28T05:53:24;4.22;;;2.05;;
26303;SDS011;57113;48.680;8.890;2023-04-28T05:55:51;2.67;;;2.00;;
26303;SDS011;57113;48.680;8.890;2023-04-28T05:58:16;3.30;;;2.38;;
26303;SDS011;57113;48.680;8.890;2023-04-28T06:00:42;10.30;;;3.50;;
26303;SDS011;57113;48.680;8.890;2023-04-28T06:03:07;6.25;;;3.13;;
26303;SDS011;57113;48.680;8.890;2023-04-28T06:05:35;9.35;;;3.13;;
26303;SDS011;57113;48.680;8.890;2023-04-28T06:08:01;4.57;;;2.55;;
26303;SDS011;57113;48.680;8.890;2023-04-28T06:10:27;11.85;;;3.00;;
26303;SDS011;57113;48.680;8.890;2023-04-28T06:12:53;4.93;;;2.83;;
26303;SDS011;57113;48.680;8.890;2023-04-28T06:15:19;5.50;;;2.75;;
26303;SDS011;57113;48.680;8.890;2023-04-28T06:17:44;4.45;;;2.85;;
26303;SDS011;57113;48.680;8.890;2023-04-28T06:20:10;3.70;;;2.55;;
26303;SDS011;57113;48.680;8.890;2023-04-28T06:22:37;3.88;;;2.80;;
26303;SDS011;57113;48.680;8.890;2023-04-28T06:25:04;4.60;;;2.60;;
26303;SDS011;57113;48.680;8.890;2023-04-28T06:27:30;6.20;;;3.17;;
26303;SDS011;57113;48.680;8.890;2023-04-28T06:29:56;3.83;;;2.80;;
26303;SDS011;57113;48.680;8.890;2023-04-28T06:32:23;4.20;;;2.63;;
26303;SDS011;57113;48.680;8.890;2023-04-28T06:34:48;7.15;;;2.78;;
26303;SDS011;57113;48.680;8.890;2023-04-28T06:37:14;6.28;;;3.05;;
26303;SDS011;57113;48.680;8.890;2023-04-28T06:39:40;4.85;;;2.85;;
26303;SDS011;57113;48.680;8.890;2023-04-28T06:42:05;9.98;;;2.85;;
26303;SDS011;57113;48.680;8.890;2023-04-28T06:44:31;5.00;;;2.42;;
26303;SDS011;57113;48.680;8.890;2023-04-28T06:46:56;5.05;;;2.90;;
26303;SDS011;57113;48.680;8.890;2023-04-28T06:49:22;4.50;;;2.60;;
26303;SDS011;57113;48.680;8.890;2023-04-28T06:51:48;4.35;;;2.30;;
26303;SDS011;57113;48.680;8.890;2023-04-28T06:54:13;8.80;;;2.55;;
26303;SDS011;57113;48.680;8.890;2023-04-28T06:56:40;3.17;;;2.20;;
26303;SDS011;57113;48.680;8.890;2023-04-28T06:59:06;5.47;;;2.50;;
26303;SDS011;57113;48.680;8.890;2023-04-28T07:01:32;3.50;;;2.53;;
26303;SDS011;57113;48.680;8.890;2023-04-28T07:03:57;4.05;;;2.80;;
26303;SDS011;57113;48.680;8.890;2023-04-28T07:06:23;4.45;;;2.45;;
26303;SDS011;57113;48.680;8.890;2023-04-28T07:08:51;3.42;;;2.30;;
26303;SDS011;57113;48.680;8.890;2023-04-28T07:11:17;3.65;;;2.58;;
26303;SDS011;57113;48.680;8.890;2023-04-28T07:13:43;4.70;;;2.63;;
26303;SDS011;57113;48.680;8.890;2023-04-28T07:16:13;5.00;;;2.60;;
26303;SDS011;57113;48.680;8.890;2023-04-28T07:18:39;5.07;;;2.40;;
26303;SDS011;57113;48.680;8.890;2023-04-28T07:21:05;2.97;;;2.53;;
26303;SDS011;57113;48.680;8.890;2023-04-28T07:23:30;3.50;;;2.55;;
26303;SDS011;57113;48.680;8.890;2023-04-28T07:25:56;3.55;;;2.35;;
26303;SDS011;57113;48.680;8.890;2023-04-28T07:28:22;6.47;;;2.80;;
26303;SDS011;57113;48.680;8.890;2023-04-28T07:30:48;6.25;;;2.88;;
26303;SDS011;57113;48.680;8.890;2023-04-28T07:33:14;6.20;;;2.47;;
26303;SDS011;57113;48.680;8.890;2023-04-28T07:35:39;5.18;;;2.72;;
26303;SDS011;57113;48.680;8.890;2023-04-28T07:38:06;5.00;;;2.40;;
26303;SDS011;57113;48.680;8.890;2023-04-28T07:40:31;4.00;;;2.38;;
26303;SDS011;57113;48.680;8.890;2023-04-28T07:42:57;3.95;;;2.50;;
26303;SDS011;57113;48.680;8.890;2023-04-28T07:45:23;3.78;;;2.20;;
26303;SDS011;57113;48.680;8.890;2023-04-28T07:47:48;4.93;;;2.28;;
26303;SDS011;57113;48.680;8.890;2023-04-28T07:50:14;6.50;;;2.33;;
26303;SDS011;57113;48.680;8.890;2023-04-28T07:52:41;4.18;;;2.40;;
26303;SDS011;57113;48.680;8.890;2023-04-28T07:55:07;3.85;;;2.10;;
26303;SDS011;57113;48.680;8.890;2023-04-28T07:57:33;3.72;;;2.30;;
26303;SDS011;57113;48.680;8.890;2023-04-28T07:59:59;4.75;;;2.28;;
26303;SDS011;57113;48.680;8.890;2023-04-28T08:02:25;4.93;;;2.40;;
26303;SDS011;57113;48.680;8.890;2023-04-28T08:04:51;4.32;;;2.22;;
26303;SDS011;57113;48.680;8.890;2023-04-28T08:07:17;4.53;;;2.35;;
26303;SDS011;57113;48.680;8.890;2023-04-28T08:09:42;4.18;;;2.78;;
26303;SDS011;57113;48.680;8.890;2023-04-28T08:12:11;4.05;;;2.40;;
26303;SDS011;57113;48.680;8.890;2023-04-28T08:14:37;5.28;;;3.10;;
26303;SDS011;57113;48.680;8.890;2023-04-28T08:17:02;4.40;;;2.70;;
26303;SDS011;57113;48.680;8.890;2023-04-28T08:19:28;3.35;;;2.28;;
26303;SDS011;57113;48.680;8.890;2023-04-28T08:21:54;5.10;;;2.80;;
26303;SDS011;57113;48.680;8.890;2023-04-28T08:24:19;3.75;;;2.35;;
26303;SDS011;57113;48.680;8.890;2023-04-28T08:26:45;3.13;;;2.35;;
26303;SDS011;57113;48.680;8.890;2023-04-28T08:29:11;2.65;;;2.10;;
26303;SDS011;57113;48.680;8.890;2023-04-28T08:31:36;3.83;;;2.38;;
26303;SDS011;57113;48.680;8.890;2023-04-28T08:34:02;4.07;;;2.35;;
26303;SDS011;57113;48.680;8.890;2023-04-28T08:36:28;2.45;;;2.10;;
26303;SDS011;57113;48.680;8.890;2023-04-28T08:38:56;2.85;;;1.92;;
26303;SDS011;57113;48.680;8.890;2023-04-28T08:41:28;2.92;;;2.40;;
26303;SDS011;57113;48.680;8.890;2023-04-28T08:43:57;3.65;;;2.08;;
26303;SDS011;57113;48.680;8.890;2023-04-28T08:46:22;2.83;;;2.03;;
26303;SDS011;57113;48.680;8.890;2023-04-28T08:48:51;2.95;;;2.05;;
26303;SDS011;57113;48.680;8.890;2023-04-28T08:51:26;5.70;;;2.30;;
26303;SDS011;57113;48.680;8.890;2023-04-28T08:54:02;3.25;;;1.90;;
26303;SDS011;57113;48.680;8.890;2023-04-28T08:56:32;2.70;;;1.98;;
26303;SDS011;57113;48.680;8.890;2023-04-28T08:59:02;4.20;;;1.80;;
26303;SDS011;57113;48.680;8.890;2023-04-28T09:01:31;4.82;;;2.17;;
26303;SDS011;57113;48.680;8.890;2023-04-28T09:03:59;4.35;;;1.80;;
26303;SDS011;57113;48.680;8.890;2023-04-28T09:06:26;2.83;;;1.70;;
26303;SDS011;57113;48.680;8.890;2023-04-28T09:08:55;2.45;;;1.65;;
26303;SDS011;57113;48.680;8.890;2023-04-28T09:11:21;2.75;;;1.80;;
26303;SDS011;57113;48.680;8.890;2023-04-28T09:13:47;4.47;;;1.90;;
26303;SDS011;57113;48.680;8.890;2023-04-28T09:16:13;3.00;;;1.65;;
26303;SDS011;57113;48.680;8.890;2023-04-28T09:18:38;2.45;;;1.52;;
26303;SDS011;57113;48.680;8.890;2023-04-28T09:21:19;2.88;;;1.50;;
26303;SDS011;57113;48.680;8.890;2023-04-28T09:23:46;2.05;;;1.50;;
26303;SDS011;57113;48.680;8.890;2023-04-28T09:26:13;1.65;;;1.30;;
26303;SDS011;57113;48.680;8.890;2023-04-28T09:28:38;1.70;;;1.35;;
26303;SDS011;57113;48.680;8.890;2023-04-28T09:31:04;2.60;;;1.42;;
26303;SDS011;57113;48.680;8.890;2023-04-28T09:33:30;2.75;;;1.65;;
26303;SDS011;57113;48.680;8.890;2023-04-28T09:35:56;1.95;;;1.40;;
26303;SDS011;57113;48.680;8.890;2023-04-28T09:38:21;2.80;;;1.42;;
26303;SDS011;57113;48.680;8.890;2023-04-28T09:41:08;1.55;;;1.08;;
26303;SDS011;57113;48.680;8.890;2023-04-28T09:43:34;2.00;;;1.38;;
26303;SDS011;57113;48.680;8.890;2023-04-28T09:46:03;3.17;;;1.50;;
26303;SDS011;57113;48.680;8.890;2023-04-28T09:48:34;1.70;;;1.30;;
26303;SDS011;57113;48.680;8.890;2023-04-28T09:51:04;1.38;;;1.20;;
26303;SDS011;57113;48.680;8.890;2023-04-28T09:53:31;2.25;;;1.30;;
26303;SDS011;57113;48.680;8.890;2023-04-28T09:55:59;1.73;;;1.20;;
26303;SDS011;57113;48.680;8.890;2023-04-28T09:58:26;1.75;;;1.13;;
26303;SDS011;57113;48.680;8.890;2023-04-28T10:00:53;1.33;;;1.15;;
26303;SDS011;57113;48.680;8.890;2023-04-28T10:03:24;1.50;;;1.15;;
26303;SDS011;57113;48.680;8.890;2023-04-28T10:05:51;1.40;;;1.15;;
26303;SDS011;57113;48.680;8.890;2023-04-28T10:08:21;1.55;;;1.00;;
26303;SDS011;57113;48.680;8.890;2023-04-28T10:10:48;2.17;;;1.15;;
26303;SDS011;57113;48.680;8.890;2023-04-28T10:13:15;1.65;;;1.10;;
26303;SDS011;57113;48.680;8.890;2023-04-28T10:15:42;1.10;;;0.90;;
26303;SDS011;57113;48.680;8.890;2023-04-28T10:18:08;2.15;;;1.00;;
26303;SDS011;57113;48.680;8.890;2023-04-28T10:20:34;1.50;;;1.00;;
26303;SDS011;57113;48.680;8.890;2023-04-28T10:25:44;1.30;;;1.00;;
26303;SDS011;57113;48.680;8.890;2023-04-28T10:28:13;1.77;;;0.93;;
26303;SDS011;57113;48.680;8.890;2023-04-28T10:30:39;1.30;;;0.90;;
26303;SDS011;57113;48.680;8.890;2023-04-28T10:35:44;1.30;;;0.90;;
26303;SDS011;57113;48.680;8.890;2023-04-28T10:38:14;1.00;;;0.90;;
26303;SDS011;57113;48.680;8.890;2023-04-28T10:43:12;1.08;;;0.90;;
26303;SDS011;57113;48.680;8.890;2023-04-28T10:56:08;1.25;;;0.80;;
26303;SDS011;57113;48.680;8.890;2023-04-28T10:58:48;1.30;;;0.80;;
26303;SDS011;57113;48.680;8.890;2023-04-28T11:09:02;1.45;;;0.73;;
26303;SDS011;57113;48.680;8.890;2023-04-28T11:22:03;0.77;;;0.73;;
26303;SDS011;57113;48.680;8.890;2023-04-28T11:24:39;1.48;;;0.90;;
26303;SDS011;57113;48.680;8.890;2023-04-28T11:27:04;1.88;;;0.88;;
26303;SDS011;57113;48.680;8.890;2023-04-28T11:32:07;1.35;;;0.90;;
26303;SDS011;57113;48.680;8.890;2023-04-28T11:34:33;0.90;;;0.65;;
26303;SDS011;57113;48.680;8.890;2023-04-28T11:37:00;0.52;;;0.50;;
26303;SDS011;57113;48.680;8.890;2023-04-28T11:39:26;0.55;;;0.47;;
26303;SDS011;57113;48.680;8.890;2023-04-28T11:41:58;1.10;;;0.80;;
26303;SDS011;57113;48.680;8.890;2023-04-28T11:44:33;0.93;;;0.55;;
26303;SDS011;57113;48.680;8.890;2023-04-28T11:46:59;0.90;;;0.57;;
26303;SDS011;57113;48.680;8.890;2023-04-28T11:49:26;0.70;;;0.60;;
26303;SDS011;57113;48.680;8.890;2023-04-28T11:52:05;0.90;;;0.50;;
26303;SDS011;57113;48.680;8.890;2023-04-28T11:54:32;0.65;;;0.60;;
26303;SDS011;57113;48.680;8.890;2023-04-28T11:56:58;0.70;;;0.50;;
26303;SDS011;57113;48.680;8.890;2023-04-28T11:59:31;1.63;;;0.60;;
26303;SDS011;57113;48.680;8.890;2023-04-28T12:02:01;2.20;;;0.50;;
26303;SDS011;57113;48.680;8.890;2023-04-28T12:04:41;0.20;;;0.20;;
26303;SDS011;57113;48.680;8.890;2023-04-28T12:09:42;0.80;;;0.47;;
26303;SDS011;57113;48.680;8.890;2023-04-28T12:12:13;0.88;;;0.30;;
26303;SDS011;57113;48.680;8.890;2023-04-28T12:17:41;1.20;;;0.40;;
26303;SDS011;57113;48.680;8.890;2023-04-28T12:20:10;0.82;;;0.47;;
26303;SDS011;57113;48.680;8.890;2023-04-28T12:22:56;1.42;;;0.70;;
26303;SDS011;57113;48.680;8.890;2023-04-28T12:25:22;0.70;;;0.40;;
26303;SDS011;57113;48.680;8.890;2023-04-28T12:27:58;1.23;;;0.52;;
26303;SDS011;57113;48.680;8.890;2023-04-28T12:30:32;1.00;;;0.47;;
26303;SDS011;57113;48.680;8.890;2023-04-28T12:32:58;0.88;;;0.40;;
26303;SDS011;57113;48.680;8.890;2023-04-28T12:35:25;1.10;;;0.57;;
26303;SDS011;57113;48.680;8.890;2023-04-28T12:37:52;0.40;;;0.32;;
26303;SDS011;57113;48.680;8.890;2023-04-28T12:40:19;0.75;;;0.40;;
26303;SDS011;57113;48.680;8.890;2023-04-28T12:42:45;0.73;;;0.47;;
26303;SDS011;57113;48.680;8.890;2023-04-28T12:45:11;1.40;;;0.60;;
26303;SDS011;57113;48.680;8.890;2023-04-28T12:47:36;2.05;;;0.70;;
26303;SDS011;57113;48.680;8.890;2023-04-28T12:50:05;2.15;;;0.52;;
26303;SDS011;57113;48.680;8.890;2023-04-28T12:52:32;0.85;;;0.60;;
26303;SDS011;57113;48.680;8.890;2023-04-28T12:54:59;0.90;;;0.60;;
26303;SDS011;57113;48.680;8.890;2023-04-28T12:57:25;0.70;;;0.57;;
26303;SDS011;57113;48.680;8.890;2023-04-28T12:59:51;0.75;;;0.43;;
26303;SDS011;57113;48.680;8.890;2023-04-28T13:02:17;0.80;;;0.50;;
26303;SDS011;57113;48.680;8.890;2023-04-28T13:04:42;0.88;;;0.60;;
26303;SDS011;57113;48.680;8.890;2023-04-28T13:07:13;0.60;;;0.50;;
26303;SDS011;57113;48.680;8.890;2023-04-28T13:09:39;0.77;;;0.50;;
26303;SDS011;57113;48.680;8.890;2023-04-28T13:12:06;0.77;;;0.40;;
26303;SDS011;57113;48.680;8.890;2023-04-28T13:14:32;0.55;;;0.40;;
26303;SDS011;57113;48.680;8.890;2023-04-28T13:16:58;0.60;;;0.43;;
26303;SDS011;57113;48.680;8.890;2023-04-28T13:19:24;0.57;;;0.30;;
26303;SDS011;57113;48.680;8.890;2023-04-28T13:21:51;0.52;;;0.40;;
26303;SDS011;57113;48.680;8.890;2023-04-28T13:24:18;0.77;;;0.40;;
26303;SDS011;57113;48.680;8.890;2023-04-28T13:26:44;2.67;;;0.50;;
26303;SDS011;57113;48.680;8.890;2023-04-28T13:29:10;0.40;;;0.40;;
26303;SDS011;57113;48.680;8.890;2023-04-28T13:31:36;0.85;;;0.57;;
26303;SDS011;57113;48.680;8.890;2023-04-28T13:34:02;0.88;;;0.50;;
26303;SDS011;57113;48.680;8.890;2023-04-28T13:36:29;0.65;;;0.50;;
26303;SDS011;57113;48.680;8.890;2023-04-28T13:38:55;1.08;;;0.65;;
26303;SDS011;57113;48.680;8.890;2023-04-28T13:41:21;1.00;;;0.57;;
26303;SDS011;57113;48.680;8.890;2023-04-28T13:43:46;0.60;;;0.50;;
26303;SDS011;57113;48.680;8.890;2023-04-28T13:46:12;0.38;;;0.30;;
26303;SDS011;57113;48.680;8.890;2023-04-28T13:48:38;0.50;;;0.50;;
26303;SDS011;57113;48.680;8.890;2023-04-28T13:51:04;0.95;;;0.40;;
26303;SDS011;57113;48.680;8.890;2023-04-28T13:53:31;0.70;;;0.57;;
26303;SDS011;57113;48.680;8.890;2023-04-28T13:55:57;1.05;;;0.38;;
26303;SDS011;57113;48.680;8.890;2023-04-28T13:58:24;0.45;;;0.28;;
26303;SDS011;57113;48.680;8.890;2023-04-28T14:00:53;2.53;;;0.60;;
26303;SDS011;57113;48.680;8.890;2023-04-28T14:03:21;0.60;;;0.38;;
26303;SDS011;57113;48.680;8.890;2023-04-28T14:05:52;0.70;;;0.40;;
26303;SDS011;57113;48.680;8.890;2023-04-28T14:08:19;4.35;;;1.58;;
26303;SDS011;57113;48.680;8.890;2023-04-28T14:10:45;2.03;;;1.50;;
26303;SDS011;57113;48.680;8.890;2023-04-28T14:13:12;2.10;;;1.70;;
26303;SDS011;57113;48.680;8.890;2023-04-28T14:15:37;3.47;;;1.83;;
26303;SDS011;57113;48.680;8.890;2023-04-28T14:18:04;2.05;;;1.45;;
26303;SDS011;57113;48.680;8.890;2023-04-28T14:20:30;2.42;;;1.70;;
26303;SDS011;57113;48.680;8.890;2023-04-28T14:22:56;2.85;;;1.70;;
26303;SDS011;57113;48.680;8.890;2023-04-28T14:25:22;1.77;;;1.35;;
26303;SDS011;57113;48.680;8.890;2023-04-28T14:27:48;2.38;;;1.23;;
26303;SDS011;57113;48.680;8.890;2023-04-28T14:30:14;1.85;;;1.33;;
26303;SDS011;57113;48.680;8.890;2023-04-28T14:32:41;2.13;;;1.40;;
26303;SDS011;57113;48.680;8.890;2023-04-28T14:35:06;1.85;;;1.38;;
26303;SDS011;57113;48.680;8.890;2023-04-28T14:37:33;1.75;;;1.10;;
26303;SDS011;57113;48.680;8.890;2023-04-28T14:39:59;1.48;;;1.05;;
26303;SDS011;57113;48.680;8.890;2023-04-28T14:42:28;2.10;;;1.15;;
26303;SDS011;57113;48.680;8.890;2023-04-28T14:44:56;2.13;;;1.17;;
26303;SDS011;57113;48.680;8.890;2023-04-28T14:47:22;1.48;;;1.10;;
26303;SDS011;57113;48.680;8.890;2023-04-28T14:49:48;1.50;;;1.17;;
26303;SDS011;57113;48.680;8.890;2023-04-28T14:52:17;1.35;;;0.98;;
26303;SDS011;57113;48.680;8.890;2023-04-28T14:54:43;1.55;;;1.02;;
26303;SDS011;57113;48.680;8.890;2023-04-28T14:57:09;1.15;;;0.80;;
26303;SDS011;57113;48.680;8.890;2023-04-28T14:59:34;1.05;;;0.80;;
26303;SDS011;57113;48.680;8.890;2023-04-28T15:02:00;1.38;;;1.00;;
26303;SDS011;57113;48.680;8.890;2023-04-28T15:04:26;1.17;;;0.90;;
26303;SDS011;57113;48.680;8.890;2023-04-28T15:06:54;1.40;;;0.88;;
26303;SDS011;57113;48.680;8.890;2023-04-28T15:09:20;1.35;;;0.88;;
26303;SDS011;57113;48.680;8.890;2023-04-28T15:11:46;3.22;;;0.82;;
26303;SDS011;57113;48.680;8.890;2023-04-28T15:14:13;2.05;;;0.80;;
26303;SDS011;57113;48.680;8.890;2023-04-28T15:16:38;0.70;;;0.60;;
26303;SDS011;57113;48.680;8.890;2023-04-28T15:19:04;1.23;;;0.80;;
26303;SDS011;57113;48.680;8.890;2023-04-28T15:21:30;1.17;;;0.80;;
26303;SDS011;57113;48.680;8.890;2023-04-28T15:23:56;1.42;;;0.85;;
26303;SDS011;57113;48.680;8.890;2023-04-28T15:26:23;3.28;;;0.77;;
26303;SDS011;57113;48.680;8.890;2023-04-28T15:28:52;1.63;;;0.88;;